sensor_id;sensor_type;location;lat;lon;timestamp;P1;durP1;ratioP1;P2;durP2;ratioP2
41829;SDS011;38614;43.472;23.936;2023-08-07T00:00:40;0.38;;;0.30;;
41829;SDS011;38614;43.472;23.936;2023-08-07T00:03:27;0.65;;;0.50;;
41829;SDS011;38614;43.472;23.936;2023-08-07T00:06:18;3.38;;;0.75;;
41829;SDS011;38614;43.472;23.936;2023-08-07T00:09:06;0.90;;;0.80;;
41829;SDS011;38614;43.472;23.936;2023-08-07T00:11:54;1.38;;;0.80;;
41829;SDS011;38614;43.472;23.936;2023-08-07T00:14:47;0.80;;;0.75;;
41829;SDS011;38614;43.472;23.936;2023-08-07T00:17:35;0.45;;;0.40;;
41829;SDS011;38614;43.472;23.936;2023-08-07T00:20:23;1.23;;;1.02;;
41829;SDS011;38614;43.472;23.936;2023-08-07T00:23:11;7.13;;;0.82;;
41829;SDS011;38614;43.472;23.936;2023-08-07T00:25:58;1.20;;;1.00;;
41829;SDS011;38614;43.472;23.936;2023-08-07T00:28:46;2.08;;;0.88;;
41829;SDS011;38614;43.472;23.936;2023-08-07T00:31:34;2.53;;;1.25;;
41829;SDS011;38614;43.472;23.936;2023-08-07T00:34:22;2.70;;;0.70;;
41829;SDS011;38614;43.472;23.936;2023-08-07T00:37:13;2.63;;;0.77;;
41829;SDS011;38614;43.472;23.936;2023-08-07T00:40:01;0.98;;;0.70;;
41829;SDS011;38614;43.472;23.936;2023-08-07T00:42:49;0.90;;;0.60;;
41829;SDS011;38614;43.472;23.936;2023-08-07T00:45:41;2.15;;;1.38;;
41829;SDS011;38614;43.472;23.936;2023-08-07T00:48:31;1.58;;;1.08;;
41829;SDS011;38614;43.472;23.936;2023-08-07T00:51:19;1.58;;;0.93;;
41829;SDS011;38614;43.472;23.936;2023-08-07T00:54:12;1.45;;;1.33;;
41829;SDS011;38614;43.472;23.936;2023-08-07T00:57:10;1.60;;;1.42;;
41829;SDS011;38614;43.472;23.936;2023-08-07T00:59:59;1.13;;;1.02;;
41829;SDS011;38614;43.472;23.936;2023-08-07T01:03:01;1.40;;;1.30;;
41829;SDS011;38614;43.472;23.936;2023-08-07T01:06:08;1.08;;;0.98;;
41829;SDS011;38614;43.472;23.936;2023-08-07T01:08:56;3.58;;;1.90;;
41829;SDS011;38614;43.472;23.936;2023-08-07T01:11:55;1.85;;;1.33;;
41829;SDS011;38614;43.472;23.936;2023-08-07T01:18:23;2.75;;;1.00;;
41829;SDS011;38614;43.472;23.936;2023-08-07T01:21:18;2.63;;;1.20;;
41829;SDS011;38614;43.472;23.936;2023-08-07T01:24:09;1.98;;;1.15;;
41829;SDS011;38614;43.472;23.936;2023-08-07T01:26:57;1.02;;;0.68;;
41829;SDS011;38614;43.472;23.936;2023-08-07T01:36:01;1.63;;;1.33;;
41829;SDS011;38614;43.472;23.936;2023-08-07T01:38:51;3.58;;;1.15;;
41829;SDS011;38614;43.472;23.936;2023-08-07T01:41:41;1.42;;;1.23;;
41829;SDS011;38614;43.472;23.936;2023-08-07T01:44:34;2.28;;;0.95;;
41829;SDS011;38614;43.472;23.936;2023-08-07T01:47:21;1.35;;;1.25;;
41829;SDS011;38614;43.472;23.936;2023-08-07T01:50:10;0.90;;;0.90;;
41829;SDS011;38614;43.472;23.936;2023-08-07T01:52:57;1.00;;;0.90;;
41829;SDS011;38614;43.472;23.936;2023-08-07T01:55:48;1.13;;;1.05;;
41829;SDS011;38614;43.472;23.936;2023-08-07T01:58:36;1.02;;;0.93;;
41829;SDS011;38614;43.472;23.936;2023-08-07T02:01:26;1.35;;;1.25;;
41829;SDS011;38614;43.472;23.936;2023-08-07T02:04:17;5.75;;;1.17;;
41829;SDS011;38614;43.472;23.936;2023-08-07T02:07:08;6.90;;;1.30;;
41829;SDS011;38614;43.472;23.936;2023-08-07T02:09:55;0.88;;;0.60;;
41829;SDS011;38614;43.472;23.936;2023-08-07T02:12:45;1.60;;;1.00;;
41829;SDS011;38614;43.472;23.936;2023-08-07T02:15:33;1.23;;;1.13;;
41829;SDS011;38614;43.472;23.936;2023-08-07T02:18:21;1.42;;;1.27;;
41829;SDS011;38614;43.472;23.936;2023-08-07T02:21:11;1.33;;;1.23;;
41829;SDS011;38614;43.472;23.936;2023-08-07T02:23:59;1.40;;;1.25;;
41829;SDS011;38614;43.472;23.936;2023-08-07T02:26:50;1.33;;;1.23;;
41829;SDS011;38614;43.472;23.936;2023-08-07T02:29:38;1.50;;;1.17;;
41829;SDS011;38614;43.472;23.936;2023-08-07T02:32:26;0.80;;;0.70;;
41829;SDS011;38614;43.472;23.936;2023-08-07T02:35:14;0.80;;;0.45;;
41829;SDS011;38614;43.472;23.936;2023-08-07T02:38:02;1.33;;;1.00;;
41829;SDS011;38614;43.472;23.936;2023-08-07T02:40:52;1.50;;;0.70;;
41829;SDS011;38614;43.472;23.936;2023-08-07T02:43:43;1.77;;;0.88;;
41829;SDS011;38614;43.472;23.936;2023-08-07T02:46:31;1.10;;;1.10;;
41829;SDS011;38614;43.472;23.936;2023-08-07T02:49:19;1.80;;;1.10;;
41829;SDS011;38614;43.472;23.936;2023-08-07T02:52:10;1.15;;;1.00;;
41829;SDS011;38614;43.472;23.936;2023-08-07T02:54:58;5.35;;;1.40;;
41829;SDS011;38614;43.472;23.936;2023-08-07T02:57:47;2.55;;;1.00;;
41829;SDS011;38614;43.472;23.936;2023-08-07T03:00:35;1.40;;;1.20;;
41829;SDS011;38614;43.472;23.936;2023-08-07T03:03:23;1.95;;;1.35;;
41829;SDS011;38614;43.472;23.936;2023-08-07T03:06:11;1.25;;;1.00;;
41829;SDS011;38614;43.472;23.936;2023-08-07T03:08:59;1.40;;;0.98;;
41829;SDS011;38614;43.472;23.936;2023-08-07T03:11:47;2.22;;;1.02;;
41829;SDS011;38614;43.472;23.936;2023-08-07T03:14:35;1.50;;;0.88;;
41829;SDS011;38614;43.472;23.936;2023-08-07T03:17:25;1.00;;;0.88;;
41829;SDS011;38614;43.472;23.936;2023-08-07T03:20:13;3.35;;;0.75;;
41829;SDS011;38614;43.472;23.936;2023-08-07T03:23:01;0.75;;;0.75;;
41829;SDS011;38614;43.472;23.936;2023-08-07T03:25:50;0.70;;;0.55;;
41829;SDS011;38614;43.472;23.936;2023-08-07T03:28:40;0.90;;;0.90;;
41829;SDS011;38614;43.472;23.936;2023-08-07T03:31:28;1.25;;;0.93;;
41829;SDS011;38614;43.472;23.936;2023-08-07T03:34:17;0.60;;;0.60;;
41829;SDS011;38614;43.472;23.936;2023-08-07T03:37:05;1.75;;;0.65;;
41829;SDS011;38614;43.472;23.936;2023-08-07T03:39:53;1.42;;;0.85;;
41829;SDS011;38614;43.472;23.936;2023-08-07T03:42:41;9.57;;;0.57;;
41829;SDS011;38614;43.472;23.936;2023-08-07T03:45:32;0.40;;;0.32;;
41829;SDS011;38614;43.472;23.936;2023-08-07T03:48:20;1.40;;;0.77;;
41829;SDS011;38614;43.472;23.936;2023-08-07T03:51:18;0.75;;;0.57;;
41829;SDS011;38614;43.472;23.936;2023-08-07T03:54:23;0.70;;;0.60;;
41829;SDS011;38614;43.472;23.936;2023-08-07T03:57:11;1.42;;;0.50;;
41829;SDS011;38614;43.472;23.936;2023-08-07T03:59:59;1.00;;;0.40;;
41829;SDS011;38614;43.472;23.936;2023-08-07T04:02:59;1.15;;;0.73;;
41829;SDS011;38614;43.472;23.936;2023-08-07T04:05:47;4.07;;;0.47;;
41829;SDS011;38614;43.472;23.936;2023-08-07T04:08:38;0.65;;;0.40;;
41829;SDS011;38614;43.472;23.936;2023-08-07T04:11:26;3.20;;;0.80;;
41829;SDS011;38614;43.472;23.936;2023-08-07T04:14:14;2.15;;;0.22;;
41829;SDS011;38614;43.472;23.936;2023-08-07T04:17:05;0.65;;;0.65;;
41829;SDS011;38614;43.472;23.936;2023-08-07T04:19:53;0.90;;;0.50;;
41829;SDS011;38614;43.472;23.936;2023-08-07T04:22:41;3.47;;;0.63;;
41829;SDS011;38614;43.472;23.936;2023-08-07T04:25:31;0.38;;;0.22;;
41829;SDS011;38614;43.472;23.936;2023-08-07T04:28:19;0.40;;;0.30;;
41829;SDS011;38614;43.472;23.936;2023-08-07T04:31:10;0.50;;;0.22;;
41829;SDS011;38614;43.472;23.936;2023-08-07T04:33:58;0.73;;;0.50;;
41829;SDS011;38614;43.472;23.936;2023-08-07T04:36:47;1.17;;;0.45;;
41829;SDS011;38614;43.472;23.936;2023-08-07T04:39:34;5.25;;;0.52;;
41829;SDS011;38614;43.472;23.936;2023-08-07T04:42:23;0.35;;;0.32;;
41829;SDS011;38614;43.472;23.936;2023-08-07T04:45:11;0.55;;;0.40;;
41829;SDS011;38614;43.472;23.936;2023-08-07T04:48:02;0.77;;;0.40;;
41829;SDS011;38614;43.472;23.936;2023-08-07T04:50:50;0.40;;;0.40;;
41829;SDS011;38614;43.472;23.936;2023-08-07T04:53:37;0.70;;;0.32;;
41829;SDS011;38614;43.472;23.936;2023-08-07T04:56:25;0.38;;;0.38;;
41829;SDS011;38614;43.472;23.936;2023-08-07T04:59:13;5.95;;;0.43;;
41829;SDS011;38614;43.472;23.936;2023-08-07T05:02:01;1.48;;;0.40;;
41829;SDS011;38614;43.472;23.936;2023-08-07T05:04:51;0.65;;;0.40;;
41829;SDS011;38614;43.472;23.936;2023-08-07T05:07:39;1.25;;;0.70;;
41829;SDS011;38614;43.472;23.936;2023-08-07T05:10:27;0.60;;;0.20;;
41829;SDS011;38614;43.472;23.936;2023-08-07T05:13:15;0.38;;;0.30;;
41829;SDS011;38614;43.472;23.936;2023-08-07T05:16:06;0.52;;;0.43;;
41829;SDS011;38614;43.472;23.936;2023-08-07T05:18:53;0.40;;;0.30;;
41829;SDS011;38614;43.472;23.936;2023-08-07T05:21:41;0.30;;;0.20;;
41829;SDS011;38614;43.472;23.936;2023-08-07T05:24:29;0.60;;;0.50;;
41829;SDS011;38614;43.472;23.936;2023-08-07T05:27:26;1.30;;;0.32;;
41829;SDS011;38614;43.472;23.936;2023-08-07T05:30:14;0.32;;;0.20;;
41829;SDS011;38614;43.472;23.936;2023-08-07T05:33:02;0.75;;;0.57;;
41829;SDS011;38614;43.472;23.936;2023-08-07T05:35:50;0.55;;;0.40;;
41829;SDS011;38614;43.472;23.936;2023-08-07T05:38:39;0.70;;;0.20;;
41829;SDS011;38614;43.472;23.936;2023-08-07T05:41:27;0.25;;;0.20;;
41829;SDS011;38614;43.472;23.936;2023-08-07T05:44:15;0.88;;;0.30;;
41829;SDS011;38614;43.472;23.936;2023-08-07T05:47:05;0.30;;;0.10;;
41829;SDS011;38614;43.472;23.936;2023-08-07T05:49:54;0.40;;;0.20;;
41829;SDS011;38614;43.472;23.936;2023-08-07T05:52:42;0.22;;;0.10;;
41829;SDS011;38614;43.472;23.936;2023-08-07T05:55:29;1.38;;;0.40;;
41829;SDS011;38614;43.472;23.936;2023-08-07T05:58:20;0.50;;;0.17;;
41829;SDS011;38614;43.472;23.936;2023-08-07T06:01:15;0.60;;;0.28;;
41829;SDS011;38614;43.472;23.936;2023-08-07T06:04:05;0.20;;;0.10;;
41829;SDS011;38614;43.472;23.936;2023-08-07T06:06:52;0.40;;;0.28;;
41829;SDS011;38614;43.472;23.936;2023-08-07T06:09:40;0.68;;;0.20;;
41829;SDS011;38614;43.472;23.936;2023-08-07T06:12:28;0.45;;;0.20;;
41829;SDS011;38614;43.472;23.936;2023-08-07T06:15:16;0.85;;;0.32;;
41829;SDS011;38614;43.472;23.936;2023-08-07T06:18:04;0.17;;;0.15;;
41829;SDS011;38614;43.472;23.936;2023-08-07T06:20:52;5.03;;;0.43;;
41829;SDS011;38614;43.472;23.936;2023-08-07T06:23:40;0.25;;;0.15;;
41829;SDS011;38614;43.472;23.936;2023-08-07T06:26:28;0.38;;;0.20;;
41829;SDS011;38614;43.472;23.936;2023-08-07T06:29:15;1.13;;;0.15;;
41829;SDS011;38614;43.472;23.936;2023-08-07T06:32:03;4.13;;;0.40;;
41829;SDS011;38614;43.472;23.936;2023-08-07T06:34:52;7.63;;;0.20;;
41829;SDS011;38614;43.472;23.936;2023-08-07T06:37:40;0.30;;;0.10;;
41829;SDS011;38614;43.472;23.936;2023-08-07T06:40:28;1.48;;;0.60;;
41829;SDS011;38614;43.472;23.936;2023-08-07T06:43:16;0.32;;;0.10;;
41829;SDS011;38614;43.472;23.936;2023-08-07T06:46:04;0.30;;;0.15;;
41829;SDS011;38614;43.472;23.936;2023-08-07T06:48:52;1.67;;;0.50;;
41829;SDS011;38614;43.472;23.936;2023-08-07T06:51:39;0.28;;;0.17;;
41829;SDS011;38614;43.472;23.936;2023-08-07T06:54:27;0.22;;;0.10;;
41829;SDS011;38614;43.472;23.936;2023-08-07T06:57:15;0.38;;;0.10;;
41829;SDS011;38614;43.472;23.936;2023-08-07T07:00:03;0.30;;;0.10;;
41829;SDS011;38614;43.472;23.936;2023-08-07T07:02:52;0.20;;;0.15;;
41829;SDS011;38614;43.472;23.936;2023-08-07T07:05:43;2.15;;;0.20;;
41829;SDS011;38614;43.472;23.936;2023-08-07T07:08:31;4.25;;;0.25;;
41829;SDS011;38614;43.472;23.936;2023-08-07T07:11:19;5.15;;;0.20;;
41829;SDS011;38614;43.472;23.936;2023-08-07T07:14:09;0.63;;;0.15;;
41829;SDS011;38614;43.472;23.936;2023-08-07T07:16:58;0.10;;;0.00;;
41829;SDS011;38614;43.472;23.936;2023-08-07T07:19:46;0.40;;;0.10;;
41829;SDS011;38614;43.472;23.936;2023-08-07T07:22:34;0.13;;;0.10;;
41829;SDS011;38614;43.472;23.936;2023-08-07T07:25:22;0.45;;;0.10;;
41829;SDS011;38614;43.472;23.936;2023-08-07T07:28:10;2.60;;;0.17;;
41829;SDS011;38614;43.472;23.936;2023-08-07T07:30:57;0.63;;;0.10;;
41829;SDS011;38614;43.472;23.936;2023-08-07T07:33:46;0.13;;;0.05;;
41829;SDS011;38614;43.472;23.936;2023-08-07T07:36:34;2.58;;;0.00;;
41829;SDS011;38614;43.472;23.936;2023-08-07T07:39:22;0.10;;;0.00;;
41829;SDS011;38614;43.472;23.936;2023-08-07T07:42:10;9.25;;;0.40;;
41829;SDS011;38614;43.472;23.936;2023-08-07T07:44:58;0.32;;;0.10;;
41829;SDS011;38614;43.472;23.936;2023-08-07T07:47:46;0.15;;;0.00;;
41829;SDS011;38614;43.472;23.936;2023-08-07T07:50:33;0.00;;;0.00;;
41829;SDS011;38614;43.472;23.936;2023-08-07T07:53:21;0.10;;;0.00;;
41829;SDS011;38614;43.472;23.936;2023-08-07T07:56:11;0.00;;;0.00;;
41829;SDS011;38614;43.472;23.936;2023-08-07T07:58:59;2.53;;;0.10;;
41829;SDS011;38614;43.472;23.936;2023-08-07T08:01:47;0.00;;;0.00;;
41829;SDS011;38614;43.472;23.936;2023-08-07T08:04:35;0.98;;;0.00;;
41829;SDS011;38614;43.472;23.936;2023-08-07T08:07:23;0.00;;;0.00;;
41829;SDS011;38614;43.472;23.936;2023-08-07T08:10:11;0.55;;;0.08;;
41829;SDS011;38614;43.472;23.936;2023-08-07T08:13:01;0.20;;;0.00;;
41829;SDS011;38614;43.472;23.936;2023-08-07T08:15:51;0.28;;;0.03;;
41829;SDS011;38614;43.472;23.936;2023-08-07T08:18:39;0.30;;;0.00;;
41829;SDS011;38614;43.472;23.936;2023-08-07T08:21:27;0.00;;;0.00;;
41829;SDS011;38614;43.472;23.936;2023-08-07T08:24:14;0.03;;;0.00;;
41829;SDS011;38614;43.472;23.936;2023-08-07T08:27:02;0.28;;;0.10;;
41829;SDS011;38614;43.472;23.936;2023-08-07T08:29:51;0.10;;;0.00;;
41829;SDS011;38614;43.472;23.936;2023-08-07T08:32:38;0.40;;;0.00;;
41829;SDS011;38614;43.472;23.936;2023-08-07T08:35:27;0.30;;;0.00;;
41829;SDS011;38614;43.472;23.936;2023-08-07T08:38:15;0.10;;;0.00;;
41829;SDS011;38614;43.472;23.936;2023-08-07T08:41:07;0.00;;;0.00;;
41829;SDS011;38614;43.472;23.936;2023-08-07T08:43:56;0.00;;;0.00;;
41829;SDS011;38614;43.472;23.936;2023-08-07T08:46:46;0.45;;;0.13;;
41829;SDS011;38614;43.472;23.936;2023-08-07T08:49:51;0.65;;;0.10;;
41829;SDS011;38614;43.472;23.936;2023-08-07T08:52:53;0.00;;;0.00;;
41829;SDS011;38614;43.472;23.936;2023-08-07T08:55:43;3.60;;;0.00;;
41829;SDS011;38614;43.472;23.936;2023-08-07T08:58:33;0.00;;;0.00;;
41829;SDS011;38614;43.472;23.936;2023-08-07T09:01:21;0.00;;;0.00;;
41829;SDS011;38614;43.472;23.936;2023-08-07T09:04:12;0.05;;;0.00;;
41829;SDS011;38614;43.472;23.936;2023-08-07T09:07:03;0.10;;;0.00;;
41829;SDS011;38614;43.472;23.936;2023-08-07T09:09:52;0.00;;;0.00;;
41829;SDS011;38614;43.472;23.936;2023-08-07T09:12:42;0.10;;;0.00;;
41829;SDS011;38614;43.472;23.936;2023-08-07T09:15:44;0.00;;;0.00;;
41829;SDS011;38614;43.472;23.936;2023-08-07T09:18:37;0.00;;;0.00;;
41829;SDS011;38614;43.472;23.936;2023-08-07T09:21:25;0.00;;;0.00;;
41829;SDS011;38614;43.472;23.936;2023-08-07T09:24:14;0.10;;;0.00;;
41829;SDS011;38614;43.472;23.936;2023-08-07T09:27:08;0.00;;;0.00;;
41829;SDS011;38614;43.472;23.936;2023-08-07T09:29:56;0.10;;;0.00;;
41829;SDS011;38614;43.472;23.936;2023-08-07T09:32:47;1.85;;;0.00;;
41829;SDS011;38614;43.472;23.936;2023-08-07T09:35:36;0.25;;;0.20;;
41829;SDS011;38614;43.472;23.936;2023-08-07T09:38:24;1.35;;;0.00;;
41829;SDS011;38614;43.472;23.936;2023-08-07T09:41:19;2.10;;;0.10;;
41829;SDS011;38614;43.472;23.936;2023-08-07T09:44:07;0.38;;;0.00;;
41829;SDS011;38614;43.472;23.936;2023-08-07T09:46:56;0.65;;;0.00;;
41829;SDS011;38614;43.472;23.936;2023-08-07T09:49:45;0.00;;;0.00;;
41829;SDS011;38614;43.472;23.936;2023-08-07T09:52:33;0.10;;;0.00;;
41829;SDS011;38614;43.472;23.936;2023-08-07T09:55:21;0.20;;;0.00;;
41829;SDS011;38614;43.472;23.936;2023-08-07T09:58:11;0.10;;;0.00;;
41829;SDS011;38614;43.472;23.936;2023-08-07T10:01:00;0.20;;;0.00;;
41829;SDS011;38614;43.472;23.936;2023-08-07T10:03:51;0.10;;;0.00;;
41829;SDS011;38614;43.472;23.936;2023-08-07T10:06:39;0.00;;;0.00;;
41829;SDS011;38614;43.472;23.936;2023-08-07T10:09:27;0.00;;;0.00;;
41829;SDS011;38614;43.472;23.936;2023-08-07T10:12:16;0.15;;;0.15;;
41829;SDS011;38614;43.472;23.936;2023-08-07T10:15:04;0.15;;;0.15;;
41829;SDS011;38614;43.472;23.936;2023-08-07T10:17:55;0.00;;;0.00;;
41829;SDS011;38614;43.472;23.936;2023-08-07T10:20:44;0.10;;;0.00;;
41829;SDS011;38614;43.472;23.936;2023-08-07T10:23:35;0.10;;;0.00;;
41829;SDS011;38614;43.472;23.936;2023-08-07T10:26:25;1.20;;;0.30;;
41829;SDS011;38614;43.472;23.936;2023-08-07T10:29:14;0.00;;;0.00;;
41829;SDS011;38614;43.472;23.936;2023-08-07T10:32:06;0.03;;;0.00;;
41829;SDS011;38614;43.472;23.936;2023-08-07T10:34:55;0.20;;;0.00;;
41829;SDS011;38614;43.472;23.936;2023-08-07T10:37:46;0.10;;;0.00;;
41829;SDS011;38614;43.472;23.936;2023-08-07T10:40:33;0.10;;;0.00;;
41829;SDS011;38614;43.472;23.936;2023-08-07T10:43:22;0.90;;;0.00;;
41829;SDS011;38614;43.472;23.936;2023-08-07T10:46:15;6.88;;;0.00;;
41829;SDS011;38614;43.472;23.936;2023-08-07T10:49:11;0.65;;;0.00;;
41829;SDS011;38614;43.472;23.936;2023-08-07T10:52:24;0.00;;;0.00;;
41829;SDS011;38614;43.472;23.936;2023-08-07T10:55:23;0.35;;;0.00;;
41829;SDS011;38614;43.472;23.936;2023-08-07T10:58:24;0.55;;;0.10;;
41829;SDS011;38614;43.472;23.936;2023-08-07T11:04:16;0.00;;;0.00;;
41829;SDS011;38614;43.472;23.936;2023-08-07T11:07:04;0.10;;;0.00;;
41829;SDS011;38614;43.472;23.936;2023-08-07T11:09:53;3.03;;;0.08;;
41829;SDS011;38614;43.472;23.936;2023-08-07T11:12:41;0.05;;;0.00;;
41829;SDS011;38614;43.472;23.936;2023-08-07T11:15:29;0.15;;;0.00;;
41829;SDS011;38614;43.472;23.936;2023-08-07T11:18:18;3.55;;;0.00;;
41829;SDS011;38614;43.472;23.936;2023-08-07T11:21:09;0.20;;;0.00;;
41829;SDS011;38614;43.472;23.936;2023-08-07T11:23:58;1.15;;;0.00;;
41829;SDS011;38614;43.472;23.936;2023-08-07T11:26:46;0.10;;;0.00;;
41829;SDS011;38614;43.472;23.936;2023-08-07T11:29:34;0.03;;;0.00;;
41829;SDS011;38614;43.472;23.936;2023-08-07T11:32:22;0.00;;;0.00;;
41829;SDS011;38614;43.472;23.936;2023-08-07T11:35:10;0.10;;;0.10;;
41829;SDS011;38614;43.472;23.936;2023-08-07T11:38:01;0.00;;;0.00;;
41829;SDS011;38614;43.472;23.936;2023-08-07T11:40:48;3.95;;;0.00;;
41829;SDS011;38614;43.472;23.936;2023-08-07T11:43:36;0.30;;;0.10;;
41829;SDS011;38614;43.472;23.936;2023-08-07T11:46:25;0.10;;;0.00;;
41829;SDS011;38614;43.472;23.936;2023-08-07T11:49:13;0.13;;;0.00;;
41829;SDS011;38614;43.472;23.936;2023-08-07T11:52:01;0.03;;;0.00;;
41829;SDS011;38614;43.472;23.936;2023-08-07T11:54:50;0.47;;;0.20;;
41829;SDS011;38614;43.472;23.936;2023-08-07T11:57:40;0.00;;;0.00;;
41829;SDS011;38614;43.472;23.936;2023-08-07T12:00:32;0.28;;;0.00;;
41829;SDS011;38614;43.472;23.936;2023-08-07T12:03:39;0.00;;;0.00;;
41829;SDS011;38614;43.472;23.936;2023-08-07T12:06:29;0.10;;;0.00;;
41829;SDS011;38614;43.472;23.936;2023-08-07T12:09:17;0.52;;;0.00;;
41829;SDS011;38614;43.472;23.936;2023-08-07T12:12:05;0.00;;;0.00;;
41829;SDS011;38614;43.472;23.936;2023-08-07T12:14:54;3.05;;;0.10;;
41829;SDS011;38614;43.472;23.936;2023-08-07T12:17:42;0.10;;;0.00;;
41829;SDS011;38614;43.472;23.936;2023-08-07T12:20:30;0.10;;;0.00;;
41829;SDS011;38614;43.472;23.936;2023-08-07T12:23:20;0.28;;;0.20;;
41829;SDS011;38614;43.472;23.936;2023-08-07T12:26:09;0.08;;;0.00;;
41829;SDS011;38614;43.472;23.936;2023-08-07T12:28:57;0.00;;;0.00;;
41829;SDS011;38614;43.472;23.936;2023-08-07T12:31:45;1.02;;;0.00;;
41829;SDS011;38614;43.472;23.936;2023-08-07T12:34:36;0.20;;;0.20;;
41829;SDS011;38614;43.472;23.936;2023-08-07T12:37:45;0.03;;;0.00;;
41829;SDS011;38614;43.472;23.936;2023-08-07T12:40:33;0.38;;;0.20;;
41829;SDS011;38614;43.472;23.936;2023-08-07T12:43:23;0.20;;;0.00;;
41829;SDS011;38614;43.472;23.936;2023-08-07T12:46:11;0.00;;;0.00;;
41829;SDS011;38614;43.472;23.936;2023-08-07T12:49:04;0.00;;;0.00;;
41829;SDS011;38614;43.472;23.936;2023-08-07T12:51:52;0.00;;;0.00;;
41829;SDS011;38614;43.472;23.936;2023-08-07T12:54:40;1.63;;;0.00;;
41829;SDS011;38614;43.472;23.936;2023-08-07T12:57:28;0.05;;;0.00;;
41829;SDS011;38614;43.472;23.936;2023-08-07T13:00:16;4.03;;;0.00;;
41829;SDS011;38614;43.472;23.936;2023-08-07T13:03:05;0.00;;;0.00;;
41829;SDS011;38614;43.472;23.936;2023-08-07T13:05:53;0.00;;;0.00;;
41829;SDS011;38614;43.472;23.936;2023-08-07T13:08:41;0.00;;;0.00;;
41829;SDS011;38614;43.472;23.936;2023-08-07T13:11:29;0.98;;;0.00;;
41829;SDS011;38614;43.472;23.936;2023-08-07T13:14:17;0.63;;;0.00;;
41829;SDS011;38614;43.472;23.936;2023-08-07T13:17:04;3.30;;;0.00;;
41829;SDS011;38614;43.472;23.936;2023-08-07T13:19:52;0.10;;;0.00;;
41829;SDS011;38614;43.472;23.936;2023-08-07T13:22:41;0.55;;;0.20;;
41829;SDS011;38614;43.472;23.936;2023-08-07T13:25:29;0.10;;;0.00;;
41829;SDS011;38614;43.472;23.936;2023-08-07T13:28:17;0.00;;;0.00;;
41829;SDS011;38614;43.472;23.936;2023-08-07T13:31:05;5.45;;;0.00;;
41829;SDS011;38614;43.472;23.936;2023-08-07T13:33:56;0.00;;;0.00;;
41829;SDS011;38614;43.472;23.936;2023-08-07T13:36:50;0.17;;;0.00;;
41829;SDS011;38614;43.472;23.936;2023-08-07T13:39:38;0.10;;;0.00;;
41829;SDS011;38614;43.472;23.936;2023-08-07T13:42:26;0.03;;;0.00;;
41829;SDS011;38614;43.472;23.936;2023-08-07T13:45:14;0.40;;;0.10;;
41829;SDS011;38614;43.472;23.936;2023-08-07T13:48:05;0.30;;;0.00;;
41829;SDS011;38614;43.472;23.936;2023-08-07T13:50:56;0.08;;;0.00;;
41829;SDS011;38614;43.472;23.936;2023-08-07T13:53:44;0.10;;;0.00;;
41829;SDS011;38614;43.472;23.936;2023-08-07T13:56:32;0.52;;;0.00;;
41829;SDS011;38614;43.472;23.936;2023-08-07T13:59:23;1.95;;;0.00;;
41829;SDS011;38614;43.472;23.936;2023-08-07T14:02:11;0.20;;;0.00;;
41829;SDS011;38614;43.472;23.936;2023-08-07T14:04:59;0.10;;;0.00;;
41829;SDS011;38614;43.472;23.936;2023-08-07T14:07:49;0.20;;;0.10;;
41829;SDS011;38614;43.472;23.936;2023-08-07T14:10:37;0.10;;;0.00;;
41829;SDS011;38614;43.472;23.936;2023-08-07T14:13:28;0.43;;;0.08;;
41829;SDS011;38614;43.472;23.936;2023-08-07T14:16:16;0.00;;;0.00;;
41829;SDS011;38614;43.472;23.936;2023-08-07T14:19:04;0.10;;;0.00;;
41829;SDS011;38614;43.472;23.936;2023-08-07T14:21:52;0.88;;;0.00;;
41829;SDS011;38614;43.472;23.936;2023-08-07T14:24:43;0.00;;;0.00;;
41829;SDS011;38614;43.472;23.936;2023-08-07T14:27:31;0.00;;;0.00;;
41829;SDS011;38614;43.472;23.936;2023-08-07T14:30:19;0.00;;;0.00;;
41829;SDS011;38614;43.472;23.936;2023-08-07T14:33:07;0.00;;;0.00;;
41829;SDS011;38614;43.472;23.936;2023-08-07T14:35:55;4.65;;;0.03;;
41829;SDS011;38614;43.472;23.936;2023-08-07T14:38:43;0.10;;;0.00;;
41829;SDS011;38614;43.472;23.936;2023-08-07T14:41:30;0.10;;;0.00;;
41829;SDS011;38614;43.472;23.936;2023-08-07T14:47:46;0.00;;;0.00;;
41829;SDS011;38614;43.472;23.936;2023-08-07T14:50:34;0.70;;;0.10;;
41829;SDS011;38614;43.472;23.936;2023-08-07T14:53:22;0.85;;;0.00;;
41829;SDS011;38614;43.472;23.936;2023-08-07T14:56:12;0.10;;;0.00;;
41829;SDS011;38614;43.472;23.936;2023-08-07T14:59:01;0.00;;;0.00;;
41829;SDS011;38614;43.472;23.936;2023-08-07T15:01:48;0.35;;;0.00;;
41829;SDS011;38614;43.472;23.936;2023-08-07T15:04:36;0.03;;;0.00;;
41829;SDS011;38614;43.472;23.936;2023-08-07T15:07:24;0.00;;;0.00;;
41829;SDS011;38614;43.472;23.936;2023-08-07T15:10:12;0.08;;;0.00;;
41829;SDS011;38614;43.472;23.936;2023-08-07T15:12:59;0.40;;;0.00;;
41829;SDS011;38614;43.472;23.936;2023-08-07T15:15:47;0.38;;;0.00;;
41829;SDS011;38614;43.472;23.936;2023-08-07T15:18:35;1.45;;;0.00;;
41829;SDS011;38614;43.472;23.936;2023-08-07T15:21:25;1.75;;;0.00;;
41829;SDS011;38614;43.472;23.936;2023-08-07T15:24:12;0.10;;;0.00;;
41829;SDS011;38614;43.472;23.936;2023-08-07T15:27:00;4.78;;;0.00;;
41829;SDS011;38614;43.472;23.936;2023-08-07T15:29:48;0.30;;;0.00;;
41829;SDS011;38614;43.472;23.936;2023-08-07T15:32:36;0.00;;;0.00;;
41829;SDS011;38614;43.472;23.936;2023-08-07T15:35:24;0.65;;;0.00;;
41829;SDS011;38614;43.472;23.936;2023-08-07T15:38:13;0.52;;;0.00;;
41829;SDS011;38614;43.472;23.936;2023-08-07T15:41:01;0.08;;;0.00;;
41829;SDS011;38614;43.472;23.936;2023-08-07T15:43:49;2.85;;;0.28;;
41829;SDS011;38614;43.472;23.936;2023-08-07T15:46:38;0.00;;;0.00;;
41829;SDS011;38614;43.472;23.936;2023-08-07T15:49:26;5.30;;;0.20;;
41829;SDS011;38614;43.472;23.936;2023-08-07T15:52:15;2.75;;;0.00;;
41829;SDS011;38614;43.472;23.936;2023-08-07T15:55:03;0.95;;;0.10;;
41829;SDS011;38614;43.472;23.936;2023-08-07T15:57:51;2.25;;;0.03;;
41829;SDS011;38614;43.472;23.936;2023-08-07T16:00:39;0.00;;;0.00;;
41829;SDS011;38614;43.472;23.936;2023-08-07T16:03:27;0.00;;;0.00;;
41829;SDS011;38614;43.472;23.936;2023-08-07T16:06:15;0.40;;;0.40;;
41829;SDS011;38614;43.472;23.936;2023-08-07T16:09:02;0.10;;;0.00;;
41829;SDS011;38614;43.472;23.936;2023-08-07T16:11:50;0.28;;;0.00;;
41829;SDS011;38614;43.472;23.936;2023-08-07T16:14:38;0.00;;;0.00;;
41829;SDS011;38614;43.472;23.936;2023-08-07T16:17:27;0.00;;;0.00;;
41829;SDS011;38614;43.472;23.936;2023-08-07T16:20:17;0.00;;;0.00;;
41829;SDS011;38614;43.472;23.936;2023-08-07T16:23:05;0.00;;;0.00;;
41829;SDS011;38614;43.472;23.936;2023-08-07T16:25:53;3.92;;;0.00;;
41829;SDS011;38614;43.472;23.936;2023-08-07T16:28:41;0.17;;;0.00;;
41829;SDS011;38614;43.472;23.936;2023-08-07T16:31:29;3.95;;;0.00;;
41829;SDS011;38614;43.472;23.936;2023-08-07T16:34:17;2.28;;;0.10;;
41829;SDS011;38614;43.472;23.936;2023-08-07T16:37:04;3.42;;;1.65;;
41829;SDS011;38614;43.472;23.936;2023-08-07T16:39:54;0.73;;;0.10;;
41829;SDS011;38614;43.472;23.936;2023-08-07T16:42:42;2.38;;;1.08;;
41829;SDS011;38614;43.472;23.936;2023-08-07T16:45:31;2.25;;;1.20;;
41829;SDS011;38614;43.472;23.936;2023-08-07T16:48:19;4.50;;;1.80;;
41829;SDS011;38614;43.472;23.936;2023-08-07T16:51:07;0.82;;;0.45;;
41829;SDS011;38614;43.472;23.936;2023-08-07T16:54:02;0.13;;;0.10;;
41829;SDS011;38614;43.472;23.936;2023-08-07T16:56:50;2.22;;;0.00;;
41829;SDS011;38614;43.472;23.936;2023-08-07T16:59:38;6.35;;;0.10;;